createdAt,value
2023-07-24T00:01:03.599Z,99581.83
2023-07-24T00:04:09.358Z,99578.73
2023-07-24T00:07:13.521Z,99577.20
2023-07-24T00:10:12.683Z,99577.13
2023-07-24T00:13:15.284Z,99574.15
2023-07-24T00:16:42.715Z,99571.73
2023-07-24T00:19:46.647Z,99569.95
2023-07-24T00:22:58.458Z,99575.57
2023-07-24T00:26:15.216Z,99571.88
2023-07-24T00:29:21.246Z,99572.39
2023-07-24T00:32:32.819Z,99574.69
2023-07-24T00:35:35.312Z,99573.37
2023-07-24T00:38:51.198Z,99575.64
2023-07-24T00:42:25.262Z,99570.65
2023-07-24T00:45:26.730Z,99561.67
2023-07-24T00:48:40.755Z,99553.34
2023-07-24T00:52:08.525Z,99549.92
2023-07-24T00:55:29.684Z,99553.09
2023-07-24T00:58:41.087Z,99557.89
2023-07-24T01:01:38.952Z,99552.89
2023-07-24T01:05:01.873Z,99558.80
2023-07-24T01:08:06.082Z,99564.59
2023-07-24T01:11:15.513Z,99571.55
2023-07-24T01:14:18.762Z,99573.63
2023-07-24T01:17:17.805Z,99572.98
2023-07-24T01:20:29.359Z,99565.59
2023-07-24T01:23:58.241Z,99564.69
2023-07-24T01:27:09.285Z,99561.58
2023-07-24T01:30:10.018Z,99561.54
2023-07-24T01:33:28.071Z,99560.96
2023-07-24T01:36:25.973Z,99559.36
2023-07-24T01:39:26.507Z,99554.09
2023-07-24T01:42:24.718Z,99552.71
2023-07-24T01:45:29.873Z,99551.05
2023-07-24T01:48:32.059Z,99548.33
2023-07-24T01:51:28.225Z,99551.67
2023-07-24T01:54:34.385Z,99553.61
2023-07-24T01:57:26.012Z,99549.46
2023-07-24T02:00:26.480Z,99548.92
2023-07-24T02:03:14.217Z,99547.66
2023-07-24T02:06:10.052Z,99537.67
2023-07-24T02:09:02.600Z,99539.94
2023-07-24T02:12:01.287Z,99532.70
2023-07-24T02:14:57.985Z,99532.38
2023-07-24T02:17:50.448Z,99526.42
2023-07-24T02:20:51.146Z,99529.25
2023-07-24T02:23:46.536Z,99523.73
2023-07-24T02:26:38.765Z,99517.86
2023-07-24T02:29:41.706Z,99509.25
2023-07-24T02:32:59.569Z,99505.23
2023-07-24T02:35:51.146Z,99495.17
2023-07-24T02:38:46.085Z,99494.88
2023-07-24T02:41:40.500Z,99495.16
2023-07-24T02:44:45.740Z,99504.10
2023-07-24T02:47:47.604Z,99502.15
2023-07-24T02:51:21.311Z,99502.89
2023-07-24T02:54:20.670Z,99501.27
2023-07-24T02:57:18.391Z,99496.55
2023-07-24T03:00:20.297Z,99505.58
2023-07-24T03:03:15.362Z,99505.16
2023-07-24T03:06:11.810Z,99505.00
2023-07-24T03:09:11.820Z,99500.23
2023-07-24T03:12:06.894Z,99500.27
2023-07-24T03:15:02.155Z,99501.25
2023-07-24T03:18:03.326Z,99498.47
2023-07-24T03:21:12.921Z,99499.33
2023-07-24T03:24:09.507Z,99498.44
2023-07-24T03:27:17.893Z,99505.36
2023-07-24T03:30:19.555Z,99499.21
2023-07-24T03:36:21.770Z,99506.42
2023-07-24T03:39:33.618Z,99504.70
2023-07-24T03:42:37.350Z,99505.56
2023-07-24T03:45:44.358Z,99504.33
2023-07-24T03:48:43.529Z,99498.75
2023-07-24T03:51:43.641Z,99494.25
2023-07-24T03:54:56.882Z,99485.72
2023-07-24T03:57:55.871Z,99483.64
2023-07-24T04:00:53.756Z,99481.83
2023-07-24T04:03:57.962Z,99482.82
2023-07-24T04:07:15.557Z,99480.48
2023-07-24T04:10:14.948Z,99483.48
2023-07-24T04:13:15.438Z,99488.85
2023-07-24T04:19:26.328Z,99501.63
2023-07-24T04:25:36.926Z,99507.00
2023-07-24T04:31:46.311Z,99503.57
2023-07-24T04:34:50.917Z,99498.29
2023-07-24T04:37:49.560Z,99492.21
2023-07-24T04:44:02.963Z,99495.82
2023-07-24T04:50:14.230Z,99496.73
2023-07-24T04:53:13.879Z,99495.88
2023-07-24T04:56:19.033Z,99488.39
2023-07-24T05:02:59.663Z,99490.47
2023-07-24T05:06:10.504Z,99486.45
2023-07-24T05:09:17.749Z,99485.42
2023-07-24T05:12:27.097Z,99484.69
2023-07-24T05:15:30.357Z,99489.91
2023-07-24T05:18:57.970Z,99483.88
2023-07-24T05:25:32.784Z,99470.79
2023-07-24T05:32:28.051Z,99452.69
2023-07-24T05:35:31.952Z,99441.42
2023-07-24T05:41:58.878Z,99438.69
2023-07-24T05:45:29.093Z,99431.79
2023-07-24T05:48:34.872Z,99415.68
2023-07-24T05:51:51.416Z,99413.90
2023-07-24T05:55:24.025Z,99416.43
2023-07-24T05:58:27.801Z,99413.87
2023-07-24T06:01:45.549Z,99403.55
2023-07-24T06:04:44.851Z,99402.37
2023-07-24T06:07:39.408Z,99406.13
2023-07-24T06:10:32.704Z,99403.02
2023-07-24T06:13:06.389Z,99396.86
2023-07-24T06:15:59.867Z,99399.27
2023-07-24T06:18:54.829Z,99398.67
2023-07-24T06:21:28.130Z,99394.44
2023-07-24T06:24:02.672Z,99388.14
2023-07-24T06:26:40.761Z,99393.78
2023-07-24T06:29:16.930Z,99398.12
2023-07-24T06:32:12.462Z,99405.83
2023-07-24T06:34:53.901Z,99408.27
2023-07-24T06:37:27.646Z,99409.21
2023-07-24T06:39:58.851Z,99407.22
2023-07-24T06:42:30.161Z,99401.62
2023-07-24T06:45:02.178Z,99401.54
2023-07-24T06:47:35.029Z,99397.98
2023-07-24T06:50:07.143Z,99400.54
2023-07-24T06:52:39.529Z,99401.19
2023-07-24T06:55:10.994Z,99391.23
2023-07-24T06:57:41.942Z,99385.59
2023-07-24T07:00:20.932Z,99391.38
2023-07-24T07:03:10.451Z,99388.23
2023-07-24T07:05:40.951Z,99389.36
2023-07-24T07:08:15.683Z,99380.98
2023-07-24T07:10:46.289Z,99378.55
2023-07-24T07:13:17.924Z,99372.73
2023-07-24T07:15:49.530Z,99368.41
2023-07-24T07:18:20.183Z,99369.32
2023-07-24T07:20:51.991Z,99369.20
2023-07-24T07:23:25.073Z,99366.70
2023-07-24T07:25:58.815Z,99366.46
2023-07-24T07:28:29.512Z,99367.72
2023-07-24T07:31:01.308Z,99369.77
2023-07-24T07:33:34.822Z,99374.21
2023-07-24T07:36:07.122Z,99375.99
2023-07-24T07:38:38.795Z,99366.46
2023-07-24T07:41:10.056Z,99368.06
2023-07-24T07:43:41.373Z,99360.90
2023-07-24T07:46:12.639Z,99355.02
2023-07-24T07:48:45.009Z,99349.30
2023-07-24T07:51:15.631Z,99350.27
2023-07-24T07:53:46.881Z,99344.73
2023-07-24T07:56:22.911Z,99344.52
2023-07-24T07:58:53.612Z,99347.33
2023-07-24T08:01:24.048Z,99349.98
2023-07-24T08:03:59.223Z,99354.42
2023-07-24T08:06:29.838Z,99352.52
2023-07-24T08:09:04.147Z,99353.64
2023-07-24T08:11:34.596Z,99360.23
2023-07-24T08:14:14.094Z,99356.33
2023-07-24T08:16:46.232Z,99353.80
2023-07-24T08:19:20.075Z,99354.92
2023-07-24T08:21:58.653Z,99354.04
2023-07-24T08:24:40.577Z,99349.70
2023-07-24T08:27:13.442Z,99351.48
2023-07-24T08:29:44.931Z,99354.34
2023-07-24T08:32:16.313Z,99356.71
2023-07-24T08:34:47.907Z,99359.02
2023-07-24T08:37:19.716Z,99361.27
2023-07-24T08:39:51.544Z,99345.14
2023-07-24T08:42:22.689Z,99348.35
2023-07-24T08:44:56.543Z,99354.34
2023-07-24T08:47:36.696Z,99350.38
2023-07-24T08:50:18.533Z,99344.34
2023-07-24T08:52:49.249Z,99348.11
2023-07-24T08:55:22.567Z,99347.00
2023-07-24T08:57:55.749Z,99340.66
2023-07-24T09:00:29.163Z,99339.46
2023-07-24T09:03:02.393Z,99331.93
2023-07-24T09:05:33.094Z,99331.41
2023-07-24T09:08:03.639Z,99322.63
2023-07-24T09:10:35.731Z,99315.27
2023-07-24T09:13:08.019Z,99304.95
2023-07-24T09:15:48.204Z,99306.39
2023-07-24T09:18:20.425Z,99300.95
2023-07-24T09:20:55.950Z,99299.48
2023-07-24T09:23:32.562Z,99298.84
2023-07-24T09:26:09.590Z,99298.70
2023-07-24T09:28:40.111Z,99299.40
2023-07-24T09:31:10.624Z,99297.20
2023-07-24T09:33:45.134Z,99291.67
2023-07-24T09:36:15.830Z,99289.97
2023-07-24T09:38:47.162Z,99293.83
2023-07-24T09:41:23.361Z,99301.24
2023-07-24T09:44:08.929Z,99301.25
2023-07-24T09:46:47.729Z,99300.02
2023-07-24T09:49:33.132Z,99289.17
2023-07-24T09:52:11.956Z,99285.15
2023-07-24T09:54:48.895Z,99278.21
2023-07-24T09:57:23.412Z,99287.59
2023-07-24T09:59:58.404Z,99286.01
2023-07-24T10:02:31.020Z,99286.05
2023-07-24T10:05:03.002Z,99290.78
2023-07-24T10:07:42.035Z,99289.45
2023-07-24T10:10:13.785Z,99283.05
2023-07-24T10:12:47.582Z,99283.73
2023-07-24T10:15:18.887Z,99277.31
2023-07-24T10:17:53.291Z,99272.21
2023-07-24T10:20:24.458Z,99264.92
2023-07-24T10:22:54.867Z,99266.91
2023-07-24T10:25:33.994Z,99270.61
2023-07-24T10:28:11.993Z,99273.92
2023-07-24T10:30:43.331Z,99276.05
2023-07-24T10:33:15.499Z,99281.25
2023-07-24T10:35:49.562Z,99283.77
2023-07-24T10:38:21.839Z,99281.58
2023-07-24T10:41:03.888Z,99278.69
2023-07-24T10:43:46.842Z,99273.20
2023-07-24T10:46:21.442Z,99271.59
2023-07-24T10:49:01.210Z,99262.76
2023-07-24T10:51:33.959Z,99258.95
2023-07-24T10:54:06.620Z,99250.66
2023-07-24T10:56:38.430Z,99243.78
2023-07-24T10:59:08.981Z,99234.55
2023-07-24T11:01:40.911Z,99226.48
2023-07-24T11:04:27.645Z,99219.84
2023-07-24T11:06:58.816Z,99218.83
2023-07-24T11:09:41.570Z,99222.19
2023-07-24T11:12:21.738Z,99224.77
2023-07-24T11:14:55.441Z,99218.33
2023-07-24T11:17:36.254Z,99210.55
2023-07-24T11:20:13.455Z,99209.89
2023-07-24T11:22:46.807Z,99204.51
2023-07-24T11:25:18.675Z,99206.78
2023-07-24T11:27:51.503Z,99207.63
2023-07-24T11:30:28.629Z,99213.83
2023-07-24T11:33:02.396Z,99215.75
2023-07-24T11:35:33.154Z,99209.45
2023-07-24T11:38:04.493Z,99197.55
2023-07-24T11:40:37.448Z,99200.00
2023-07-24T11:46:04.652Z,99199.86
2023-07-24T11:48:35.084Z,99190.14
2023-07-24T11:51:05.878Z,99186.15
2023-07-24T11:53:36.830Z,99184.25
2023-07-24T11:56:17.215Z,99178.05
2023-07-24T11:58:47.905Z,99173.70
2023-07-24T12:01:26.066Z,99172.76
2023-07-24T12:03:58.589Z,99171.27
2023-07-24T12:06:32.690Z,99161.22
2023-07-24T12:09:07.075Z,99159.66
2023-07-24T12:11:41.106Z,99157.43
2023-07-24T12:14:11.792Z,99155.80
2023-07-24T12:16:48.073Z,99153.36
2023-07-24T12:19:18.506Z,99148.71
2023-07-24T12:21:48.952Z,99147.36
2023-07-24T12:24:20.523Z,99147.91
2023-07-24T12:26:51.180Z,99138.52
2023-07-24T12:29:21.934Z,99134.97
2023-07-24T12:31:52.358Z,99130.92
2023-07-24T12:34:26.732Z,99132.99
2023-07-24T12:37:00.183Z,99130.60
2023-07-24T12:39:34.131Z,99129.73
2023-07-24T12:42:05.725Z,99126.09
2023-07-24T12:44:36.684Z,99122.30
2023-07-24T12:47:11.653Z,99118.34
2023-07-24T12:49:42.821Z,99113.81
2023-07-24T12:52:15.085Z,99113.81
2023-07-24T12:55:00.073Z,99113.58
2023-07-24T12:57:42.423Z,99113.36
2023-07-24T13:00:14.876Z,99110.73
2023-07-24T13:02:48.907Z,99103.47
2023-07-24T13:05:19.721Z,99110.22
2023-07-24T13:07:50.343Z,99111.92
2023-07-24T13:10:21.108Z,99106.93
2023-07-24T13:12:51.609Z,99106.05
2023-07-24T13:15:23.395Z,99103.95
2023-07-24T13:17:53.994Z,99102.17
2023-07-24T13:20:26.495Z,99095.42
2023-07-24T13:22:56.864Z,99098.80
2023-07-24T13:25:32.190Z,99096.83
2023-07-24T13:28:02.616Z,99095.69
2023-07-24T13:30:33.062Z,99088.92
2023-07-24T13:33:03.433Z,99083.78
2023-07-24T13:35:34.678Z,99084.41
2023-07-24T13:38:05.065Z,99075.36
2023-07-24T13:40:35.842Z,99075.49
2023-07-24T13:43:06.301Z,99068.46
2023-07-24T13:45:36.875Z,99065.75
2023-07-24T13:48:10.908Z,99058.55
2023-07-24T13:50:41.276Z,99057.57
2023-07-24T13:53:13.476Z,99050.75
2023-07-24T13:55:46.504Z,99044.92
2023-07-24T13:58:17.138Z,99030.42
2023-07-24T14:00:47.610Z,99023.46
2023-07-24T14:03:18.088Z,99016.36
2023-07-24T14:05:51.305Z,99022.99
2023-07-24T14:08:22.081Z,99031.33
2023-07-24T14:10:53.419Z,99027.55
2023-07-24T14:13:23.916Z,99031.77
2023-07-24T14:16:15.663Z,99033.23
2023-07-24T14:18:49.318Z,99032.61
2023-07-24T14:21:20.228Z,99026.98
2023-07-24T14:23:56.946Z,99028.58
2023-07-24T14:26:32.236Z,99019.64
2023-07-24T14:29:04.939Z,99012.18
2023-07-24T14:31:35.774Z,99007.89
2023-07-24T14:34:12.122Z,99000.62
2023-07-24T14:36:42.609Z,99000.34
2023-07-24T14:39:13.495Z,98996.25
2023-07-24T14:41:43.978Z,98991.29
2023-07-24T14:44:23.082Z,98984.55
2023-07-24T14:46:54.544Z,98981.50
2023-07-24T14:49:25.001Z,98969.21
2023-07-24T14:51:55.487Z,98966.14
2023-07-24T14:54:29.525Z,98964.91
2023-07-24T14:57:18.535Z,98957.11
2023-07-24T14:59:55.284Z,98947.60
2023-07-24T15:02:25.949Z,98942.76
2023-07-24T15:04:56.604Z,98944.43
2023-07-24T15:07:26.997Z,98936.61
2023-07-24T15:09:59.615Z,98936.33
2023-07-24T15:12:31.994Z,98935.60
2023-07-24T15:15:06.931Z,98938.77
2023-07-24T15:17:39.721Z,98938.99
2023-07-24T15:20:13.817Z,98934.63
2023-07-24T15:22:44.659Z,98936.25
2023-07-24T15:25:15.168Z,98937.36
2023-07-24T15:27:45.777Z,98936.95
2023-07-24T15:30:16.968Z,98922.24
2023-07-24T15:32:48.269Z,98917.50
2023-07-24T15:35:19.832Z,98913.77
2023-07-24T15:37:50.956Z,98909.86
2023-07-24T15:40:22.420Z,98905.98
2023-07-24T15:42:52.781Z,98902.23
2023-07-24T15:45:25.651Z,98902.73
2023-07-24T15:47:56.164Z,98902.24
2023-07-24T15:50:26.991Z,98894.91
2023-07-24T15:52:57.435Z,98894.37
2023-07-24T15:55:37.161Z,98882.60
2023-07-24T15:58:09.931Z,98878.91
2023-07-24T16:00:41.462Z,98876.71
2023-07-24T16:03:12.850Z,98876.85
2023-07-24T16:05:43.851Z,98877.98
2023-07-24T16:08:14.283Z,98880.70
2023-07-24T16:10:44.705Z,98885.72
2023-07-24T16:16:10.751Z,98886.61
2023-07-24T16:18:41.253Z,98885.23
2023-07-24T16:21:14.755Z,98885.79
2023-07-24T16:23:45.466Z,98884.05
2023-07-24T16:26:18.543Z,98877.00
2023-07-24T16:28:49.866Z,98875.23
2023-07-24T16:31:21.257Z,98866.33
2023-07-24T16:33:52.141Z,98857.38
2023-07-24T16:36:22.814Z,98861.11
2023-07-24T16:38:53.493Z,98849.07
2023-07-24T16:41:26.216Z,98844.40
2023-07-24T16:44:01.823Z,98843.90
2023-07-24T16:46:36.133Z,98828.40
2023-07-24T16:49:11.776Z,98814.93
2023-07-24T16:51:45.233Z,98817.24
2023-07-24T16:54:16.515Z,98826.04
2023-07-24T16:56:54.350Z,98833.16
2023-07-24T16:59:28.950Z,98835.97
2023-07-24T17:02:01.909Z,98833.44
2023-07-24T17:04:40.576Z,98837.95
2023-07-24T17:07:11.300Z,98841.09
2023-07-24T17:09:45.272Z,98840.33
2023-07-24T17:12:15.776Z,98834.73
2023-07-24T17:14:46.657Z,98833.72
2023-07-24T17:17:18.651Z,98831.23
2023-07-24T17:19:49.734Z,98824.11
2023-07-24T17:22:22.241Z,98818.23
2023-07-24T17:24:54.000Z,98822.55
2023-07-24T17:27:25.210Z,98825.23
2023-07-24T17:29:56.387Z,98830.98
2023-07-24T17:32:27.325Z,98834.91
2023-07-24T17:34:57.769Z,98832.20
2023-07-24T17:37:37.860Z,98830.02
2023-07-24T17:40:16.378Z,98823.92
2023-07-24T17:42:48.923Z,98816.16
2023-07-24T17:45:34.214Z,98819.95
2023-07-24T17:48:07.781Z,98828.25
2023-07-24T17:50:39.629Z,98817.94
2023-07-24T17:53:12.491Z,98819.90
2023-07-24T17:55:45.276Z,98812.72
2023-07-24T17:58:16.511Z,98812.95
2023-07-24T18:00:48.092Z,98810.46
2023-07-24T18:03:19.711Z,98808.11
2023-07-24T18:05:50.282Z,98807.50
2023-07-24T18:08:21.514Z,98809.81
2023-07-24T18:10:54.764Z,98819.70
2023-07-24T18:13:28.624Z,98824.03
2023-07-24T18:16:06.260Z,98821.27
2023-07-24T18:18:36.742Z,98819.19
2023-07-24T18:21:14.922Z,98815.77
2023-07-24T18:23:45.649Z,98816.81
2023-07-24T18:26:16.255Z,98816.09
2023-07-24T18:28:49.587Z,98817.98
2023-07-24T18:31:23.555Z,98819.64
2023-07-24T18:33:55.042Z,98823.83
2023-07-24T18:36:32.001Z,98818.29
2023-07-24T18:39:19.955Z,98812.34
2023-07-24T18:41:54.937Z,98810.98
2023-07-24T18:44:25.604Z,98818.65
2023-07-24T18:46:56.504Z,98816.23
2023-07-24T18:49:28.572Z,98817.45
2023-07-24T18:52:01.404Z,98809.52
2023-07-24T18:54:31.931Z,98807.41
2023-07-24T18:57:03.965Z,98813.70
2023-07-24T18:59:39.405Z,98810.38
2023-07-24T19:02:17.612Z,98810.63
2023-07-24T19:04:50.590Z,98803.95
2023-07-24T19:07:35.731Z,98796.83
2023-07-24T19:10:11.785Z,98807.79
2023-07-24T19:12:42.413Z,98806.96
2023-07-24T19:15:17.964Z,98800.10
2023-07-24T19:17:48.439Z,98787.30
2023-07-24T19:20:19.063Z,98783.77
2023-07-24T19:25:37.571Z,98775.39
2023-07-24T19:28:31.666Z,98771.73
2023-07-24T19:31:34.671Z,98774.61
2023-07-24T19:34:45.054Z,98775.82
2023-07-24T19:41:00.537Z,98778.85
2023-07-24T19:47:39.456Z,98782.70
2023-07-24T19:51:08.017Z,98783.59
2023-07-24T19:54:15.179Z,98780.27
2023-07-24T20:00:39.816Z,98789.14
2023-07-24T20:03:39.458Z,98789.34
2023-07-24T20:06:39.506Z,98789.58
2023-07-24T20:09:53.489Z,98793.07
2023-07-24T20:12:47.778Z,98792.64
2023-07-24T20:15:56.176Z,98798.03
2023-07-24T20:18:49.948Z,98798.02
2023-07-24T20:21:49.211Z,98793.65
2023-07-24T20:24:52.704Z,98792.50
2023-07-24T20:27:43.767Z,98791.36
2023-07-24T20:33:58.551Z,98793.81
2023-07-24T20:36:28.719Z,98799.66
2023-07-24T20:39:20.720Z,98806.41
2023-07-24T20:42:13.093Z,98811.05
2023-07-24T20:45:15.376Z,98815.23
2023-07-24T20:48:13.031Z,98808.56
2023-07-24T20:51:18.496Z,98800.60
2023-07-24T20:54:20.262Z,98802.15
2023-07-24T20:56:57.387Z,98802.46
2023-07-24T20:59:50.097Z,98803.73
2023-07-24T21:02:43.042Z,98809.08
2023-07-24T21:05:39.485Z,98801.98
2023-07-24T21:08:20.496Z,98796.88
2023-07-24T21:11:17.778Z,98804.48
2023-07-24T21:14:13.957Z,98808.17
2023-07-24T21:17:11.814Z,98806.76
2023-07-24T21:20:07.510Z,98808.30
2023-07-24T21:22:59.461Z,98808.36
2023-07-24T21:25:57.524Z,98810.38
2023-07-24T21:28:47.086Z,98814.69
2023-07-24T21:31:43.997Z,98814.97
2023-07-24T21:34:37.889Z,98813.64
2023-07-24T21:37:32.132Z,98815.63
2023-07-24T21:40:26.308Z,98818.92
2023-07-24T21:43:19.898Z,98816.10
2023-07-24T21:46:15.093Z,98817.75
2023-07-24T21:49:08.030Z,98821.13
2023-07-24T21:52:09.867Z,98822.71
2023-07-24T21:55:14.991Z,98830.26
2023-07-24T21:58:11.878Z,98827.77
2023-07-24T22:00:40.795Z,98832.83
2023-07-24T22:03:38.567Z,98837.46
2023-07-24T22:06:32.840Z,98847.91
2023-07-24T22:09:23.452Z,98850.53
2023-07-24T22:12:20.411Z,98846.10
2023-07-24T22:15:13.302Z,98846.34
2023-07-24T22:18:15.193Z,98845.50
2023-07-24T22:21:09.818Z,98845.59
2023-07-24T22:24:02.932Z,98848.03
2023-07-24T22:26:59.949Z,98846.56
2023-07-24T22:30:10.388Z,98846.73
2023-07-24T22:33:11.198Z,98851.69
2023-07-24T22:36:07.373Z,98862.48
2023-07-24T22:39:07.414Z,98873.76
2023-07-24T22:42:11.703Z,98871.83
2023-07-24T22:45:08.668Z,98876.17
2023-07-24T22:48:03.359Z,98873.46
2023-07-24T22:50:56.313Z,98881.94
2023-07-24T22:53:45.892Z,98881.36
2023-07-24T22:56:38.641Z,98882.77
2023-07-24T22:59:26.470Z,98893.24
2023-07-24T23:02:20.788Z,98900.73
2023-07-24T23:05:13.946Z,98906.63
2023-07-24T23:08:10.764Z,98906.89
2023-07-24T23:11:02.370Z,98911.06
2023-07-24T23:13:37.071Z,98912.20
2023-07-24T23:16:29.819Z,98920.13
2023-07-24T23:19:21.449Z,98918.48
2023-07-24T23:22:18.561Z,98914.67
2023-07-24T23:25:12.751Z,98914.84
2023-07-24T23:28:20.474Z,98913.38
2023-07-24T23:31:18.707Z,98915.48
2023-07-24T23:34:17.482Z,98913.13
2023-07-24T23:37:16.833Z,98910.27
2023-07-24T23:40:11.853Z,98916.48
2023-07-24T23:42:42.874Z,98916.52
2023-07-24T23:45:34.777Z,98911.06
2023-07-24T23:48:27.704Z,98910.83
2023-07-24T23:51:20.880Z,98916.55
2023-07-24T23:53:53.259Z,98917.22
2023-07-24T23:56:46.860Z,98923.61
2023-07-24T23:59:39.127Z,98922.91
